createdAt,value
2023-04-26T00:00:11.347Z,96.5363
2023-04-26T00:01:12.042Z,96.5605
2023-04-26T00:02:12.797Z,96.6733
2023-04-26T00:03:13.628Z,96.7538
2023-04-26T00:04:14.817Z,96.6986
2023-04-26T00:05:15.742Z,96.6251
2023-04-26T00:06:16.455Z,96.7070
2023-04-26T00:07:17.138Z,96.7462
2023-04-26T00:08:17.776Z,96.7045
2023-04-26T00:09:18.505Z,96.6266
2023-04-26T00:10:19.171Z,96.5546
2023-04-26T00:11:19.835Z,96.5492
2023-04-26T00:12:20.542Z,96.6703
2023-04-26T00:13:21.260Z,96.7287
2023-04-26T00:14:21.900Z,96.7882
2023-04-26T00:15:22.584Z,96.8135
2023-04-26T00:16:23.255Z,96.8541
2023-04-26T00:17:23.896Z,96.8274
2023-04-26T00:18:24.516Z,96.8686
2023-04-26T00:19:25.159Z,96.8621
2023-04-26T00:20:25.787Z,96.8214
2023-04-26T00:21:26.439Z,96.8763
2023-04-26T00:22:27.052Z,96.9343
2023-04-26T00:23:27.730Z,96.9863
2023-04-26T00:24:28.468Z,97.0965
2023-04-26T00:25:29.130Z,97.1189
2023-04-26T00:26:29.773Z,97.0324
2023-04-26T00:27:30.430Z,97.0222
2023-04-26T00:28:31.045Z,96.9336
2023-04-26T00:29:31.748Z,96.9083
2023-04-26T00:30:32.445Z,96.8191
2023-04-26T00:31:33.107Z,96.8374
2023-04-26T00:32:33.751Z,96.7937
2023-04-26T00:33:34.475Z,96.7127
2023-04-26T00:34:35.167Z,96.6774
2023-04-26T00:35:35.834Z,96.6993
2023-04-26T00:36:36.608Z,96.7389
2023-04-26T00:37:37.336Z,96.7977
2023-04-26T00:38:37.960Z,96.8851
2023-04-26T00:39:38.700Z,96.8518
2023-04-26T00:40:39.374Z,96.9026
2023-04-26T00:41:40.084Z,96.9483
2023-04-26T00:42:40.741Z,96.9865
2023-04-26T00:43:41.426Z,96.8807
2023-04-26T00:44:42.110Z,96.6994
2023-04-26T00:45:42.839Z,96.5386
2023-04-26T00:46:43.471Z,96.5285
2023-04-26T00:47:44.162Z,96.4863
2023-04-26T00:48:44.790Z,96.3439
2023-04-26T00:49:45.483Z,96.3163
2023-04-26T00:50:46.159Z,96.3108
2023-04-26T00:51:46.829Z,96.5196
2023-04-26T00:52:47.558Z,96.6518
2023-04-26T00:53:48.210Z,96.6482
2023-04-26T00:54:48.939Z,96.7291
2023-04-26T00:55:49.661Z,96.6168
2023-04-26T00:56:50.348Z,96.5949
2023-04-26T00:57:51.000Z,96.4616
2023-04-26T00:58:51.870Z,96.3340
2023-04-26T00:59:52.828Z,96.2587
2023-04-26T01:00:53.811Z,95.9462
2023-04-26T01:01:54.530Z,95.8652
2023-04-26T01:02:55.314Z,96.0318
2023-04-26T01:03:56.131Z,95.9238
2023-04-26T01:04:57.037Z,95.9108
2023-04-26T01:05:57.688Z,96.0478
2023-04-26T01:06:58.390Z,96.0203
2023-04-26T01:07:59.102Z,95.9349
2023-04-26T01:08:59.773Z,95.7740
2023-04-26T01:10:00.464Z,95.9491
2023-04-26T01:11:01.157Z,95.8522
2023-04-26T01:12:01.867Z,95.6780
2023-04-26T01:13:02.582Z,95.7472
2023-04-26T01:14:03.257Z,95.8499
2023-04-26T01:15:03.978Z,95.7678
2023-04-26T01:16:04.694Z,95.8163
2023-04-26T01:17:05.340Z,95.9727
2023-04-26T01:18:06.093Z,96.0806
2023-04-26T01:19:06.735Z,96.0057
2023-04-26T01:20:07.422Z,95.9996
2023-04-26T01:21:08.126Z,96.0431
2023-04-26T01:22:08.873Z,96.1550
2023-04-26T01:23:09.535Z,96.3754
2023-04-26T01:24:10.209Z,96.4012
2023-04-26T01:25:10.898Z,96.5187
2023-04-26T01:26:11.595Z,96.6201
2023-04-26T01:27:12.230Z,96.6484
2023-04-26T01:28:12.878Z,96.6413
2023-04-26T01:29:13.598Z,96.6355
2023-04-26T01:30:14.361Z,96.5658
2023-04-26T01:31:15.030Z,96.5685
2023-04-26T01:32:15.734Z,96.6959
2023-04-26T01:33:16.472Z,96.8347
2023-04-26T01:34:17.192Z,96.9382
2023-04-26T01:35:17.916Z,96.8584
2023-04-26T01:36:18.565Z,96.8594
2023-04-26T01:37:19.231Z,96.7849
2023-04-26T01:38:19.963Z,96.8041
2023-04-26T01:39:20.603Z,96.8343
2023-04-26T01:40:21.358Z,96.8621
2023-04-26T01:41:21.984Z,96.8516
2023-04-26T01:42:22.689Z,96.7561
2023-04-26T01:43:23.388Z,96.6943
2023-04-26T01:44:24.053Z,96.6563
2023-04-26T01:45:24.739Z,96.6871
2023-04-26T01:46:25.442Z,96.6402
2023-04-26T01:47:26.121Z,96.5484
2023-04-26T01:48:26.784Z,96.4666
2023-04-26T01:49:27.455Z,96.4913
2023-04-26T01:50:28.122Z,96.4766
2023-04-26T01:51:28.962Z,96.5056
2023-04-26T01:52:29.784Z,96.4809
2023-04-26T01:53:30.531Z,96.4399
2023-04-26T01:54:31.189Z,96.4448
2023-04-26T01:55:31.855Z,96.5231
2023-04-26T01:56:32.666Z,96.5836
2023-04-26T01:57:33.407Z,96.6384
2023-04-26T01:58:34.100Z,96.6673
2023-04-26T01:59:34.737Z,96.8193
2023-04-26T02:00:35.454Z,96.7463
2023-04-26T02:01:36.118Z,96.6202
2023-04-26T02:02:36.945Z,96.4784
2023-04-26T02:03:37.844Z,96.5316
2023-04-26T02:04:38.565Z,96.5431
2023-04-26T02:05:39.194Z,96.4729
2023-04-26T02:06:39.896Z,96.5092
2023-04-26T02:07:40.609Z,96.5015
2023-04-26T02:08:41.247Z,96.4827
2023-04-26T02:09:41.943Z,96.5001
2023-04-26T02:10:42.659Z,96.5338
2023-04-26T02:11:43.358Z,96.6047
2023-04-26T02:12:44.066Z,96.7164
2023-04-26T02:13:44.711Z,96.8321
2023-04-26T02:14:45.361Z,96.9966
2023-04-26T02:15:46.127Z,97.1127
2023-04-26T02:16:46.881Z,97.1100
2023-04-26T02:17:47.547Z,97.1167
2023-04-26T02:18:48.289Z,97.0924
2023-04-26T02:19:48.939Z,96.9986
2023-04-26T02:20:49.650Z,97.0379
2023-04-26T02:21:50.337Z,97.0649
2023-04-26T02:22:50.998Z,97.1012
2023-04-26T02:23:51.629Z,97.0745
2023-04-26T02:24:52.319Z,97.0739
2023-04-26T02:25:52.987Z,97.1298
2023-04-26T02:26:53.682Z,97.0978
2023-04-26T02:27:54.357Z,97.0729
2023-04-26T02:28:55.159Z,97.0816
2023-04-26T02:29:55.846Z,97.0096
2023-04-26T02:30:56.556Z,96.9266
2023-04-26T02:31:57.377Z,96.8486
2023-04-26T02:32:58.092Z,96.8784
2023-04-26T02:33:58.778Z,96.8770
2023-04-26T02:34:59.527Z,96.8887
2023-04-26T02:36:00.186Z,96.9067
2023-04-26T02:37:00.912Z,96.9891
2023-04-26T02:38:01.632Z,97.0617
2023-04-26T02:39:02.325Z,97.1455
2023-04-26T02:40:03.054Z,97.2358
2023-04-26T02:41:03.940Z,97.2982
2023-04-26T02:42:04.708Z,97.3501
2023-04-26T02:43:05.385Z,97.3750
2023-04-26T02:44:06.091Z,97.3482
2023-04-26T02:45:06.854Z,97.4019
2023-04-26T02:46:07.563Z,97.4449
2023-04-26T02:47:08.321Z,97.4611
2023-04-26T02:48:09.083Z,97.4309
2023-04-26T02:49:09.750Z,97.4175
2023-04-26T02:50:10.420Z,97.4740
2023-04-26T02:51:11.104Z,97.4827
2023-04-26T02:52:11.814Z,97.5346
2023-04-26T02:53:12.514Z,97.5561
2023-04-26T02:54:13.252Z,97.5531
2023-04-26T02:55:13.928Z,97.5930
2023-04-26T02:56:14.620Z,97.6011
2023-04-26T02:57:15.287Z,97.6256
2023-04-26T02:58:16.000Z,97.6275
2023-04-26T02:59:16.673Z,97.6022
2023-04-26T03:00:17.399Z,97.5491
2023-04-26T03:01:18.159Z,97.5013
2023-04-26T03:02:18.970Z,97.5285
2023-04-26T03:03:19.910Z,97.6147
2023-04-26T03:04:21.030Z,97.6294
2023-04-26T03:05:21.705Z,97.6330
2023-04-26T03:06:22.428Z,97.7102
2023-04-26T03:07:23.138Z,97.7231
2023-04-26T03:08:23.988Z,97.7006
2023-04-26T03:09:24.606Z,97.7176
2023-04-26T03:10:25.285Z,97.7277
2023-04-26T03:11:26.011Z,97.7159
2023-04-26T03:12:26.123Z,97.6847
2023-04-26T03:13:26.852Z,97.7013
2023-04-26T03:14:27.528Z,97.7487
2023-04-26T03:15:28.216Z,97.7700
2023-04-26T03:16:28.969Z,97.7704
2023-04-26T03:17:29.625Z,97.7735
2023-04-26T03:18:30.363Z,97.7922
2023-04-26T03:19:31.020Z,97.8392
2023-04-26T03:20:31.685Z,97.8283
2023-04-26T03:21:32.357Z,97.8127
2023-04-26T03:22:33.036Z,97.7813
2023-04-26T03:23:33.760Z,97.7100
2023-04-26T03:24:34.448Z,97.5948
2023-04-26T03:25:35.154Z,97.5829
2023-04-26T03:26:35.838Z,97.5907
2023-04-26T03:27:36.506Z,97.5731
2023-04-26T03:28:37.203Z,97.5708
2023-04-26T03:29:37.920Z,97.5757
2023-04-26T03:30:38.621Z,97.5398
2023-04-26T03:31:39.461Z,97.5219
2023-04-26T03:32:40.185Z,97.4562
2023-04-26T03:33:40.787Z,97.4195
2023-04-26T03:34:41.490Z,97.4345
2023-04-26T03:35:42.192Z,97.3947
2023-04-26T03:36:42.927Z,97.3588
2023-04-26T03:37:43.575Z,97.3582
2023-04-26T03:38:44.247Z,97.3468
2023-04-26T03:39:44.952Z,97.3860
2023-04-26T03:40:45.684Z,97.3493
2023-04-26T03:41:46.367Z,97.2869
2023-04-26T03:42:47.122Z,97.2718
2023-04-26T03:43:47.767Z,97.2754
2023-04-26T03:44:48.466Z,97.3098
2023-04-26T03:45:49.148Z,97.3268
2023-04-26T03:46:49.902Z,97.3278
2023-04-26T03:47:50.693Z,97.3105
2023-04-26T03:48:51.703Z,97.2897
2023-04-26T03:49:52.808Z,97.2872
2023-04-26T03:50:53.505Z,97.3248
2023-04-26T03:51:54.181Z,97.3676
2023-04-26T03:52:54.882Z,97.4027
2023-04-26T03:53:55.593Z,97.3898
2023-04-26T03:54:56.264Z,97.3490
2023-04-26T03:55:56.936Z,97.2961
2023-04-26T03:56:57.619Z,97.3044
2023-04-26T03:57:58.534Z,97.3426
2023-04-26T03:58:59.173Z,97.3795
2023-04-26T03:59:59.934Z,97.4474
2023-04-26T04:01:00.571Z,97.4798
2023-04-26T04:02:01.267Z,97.4945
2023-04-26T04:03:02.016Z,97.5082
2023-04-26T04:04:02.935Z,97.5438
2023-04-26T04:05:03.853Z,97.5888
2023-04-26T04:06:04.620Z,97.6577
2023-04-26T04:07:05.308Z,97.7198
2023-04-26T04:08:06.017Z,97.7561
2023-04-26T04:09:06.728Z,97.8435
2023-04-26T04:10:07.401Z,97.9112
2023-04-26T04:11:08.137Z,97.9853
2023-04-26T04:12:08.834Z,98.0169
2023-04-26T04:13:09.547Z,98.0548
2023-04-26T04:14:10.302Z,98.0783
2023-04-26T04:15:10.998Z,98.0842
2023-04-26T04:16:11.756Z,98.0937
2023-04-26T04:17:12.428Z,98.0703
2023-04-26T04:18:13.177Z,98.0703
2023-04-26T04:19:13.888Z,98.0772
2023-04-26T04:20:14.622Z,98.0931
2023-04-26T04:21:15.347Z,98.1083
2023-04-26T04:22:16.071Z,98.1315
2023-04-26T04:23:16.787Z,98.1134
2023-04-26T04:24:17.429Z,98.0722
2023-04-26T04:25:18.108Z,98.0998
2023-04-26T04:26:18.754Z,98.1027
2023-04-26T04:27:19.523Z,98.1157
2023-04-26T04:28:20.174Z,98.1423
2023-04-26T04:29:20.875Z,98.1609
2023-04-26T04:30:21.584Z,98.1652
2023-04-26T04:31:22.363Z,98.1919
2023-04-26T04:32:23.181Z,98.2118
2023-04-26T04:33:23.878Z,98.2191
2023-04-26T04:34:24.575Z,98.2134
2023-04-26T04:35:25.251Z,98.1546
2023-04-26T04:36:25.924Z,98.0907
2023-04-26T04:37:26.615Z,98.0612
2023-04-26T04:38:27.315Z,97.9815
2023-04-26T04:39:27.953Z,97.9378
2023-04-26T04:40:28.663Z,97.8803
2023-04-26T04:41:29.404Z,97.8221
2023-04-26T04:42:30.087Z,97.8132
2023-04-26T04:43:31.087Z,97.8137
2023-04-26T04:44:31.885Z,97.8266
2023-04-26T04:45:32.574Z,97.8323
2023-04-26T04:46:33.312Z,97.8587
2023-04-26T04:47:34.247Z,97.8854
2023-04-26T04:48:34.995Z,97.8082
2023-04-26T04:49:35.710Z,97.7273
2023-04-26T04:50:36.394Z,97.6817
2023-04-26T04:51:37.122Z,97.5994
2023-04-26T04:52:37.923Z,97.4901
2023-04-26T04:53:38.638Z,97.2839
2023-04-26T04:54:39.250Z,97.1570
2023-04-26T04:55:39.980Z,97.0631
2023-04-26T04:56:40.622Z,97.0062
2023-04-26T04:57:43.117Z,96.9035
2023-04-26T04:58:43.948Z,96.8849
2023-04-26T04:59:44.737Z,96.9294
2023-04-26T05:00:45.412Z,96.9349
2023-04-26T05:01:46.134Z,96.8904
2023-04-26T05:02:46.951Z,96.8619
2023-04-26T05:03:47.776Z,96.7888
2023-04-26T05:04:48.541Z,96.7900
2023-04-26T05:05:49.294Z,96.7659
2023-04-26T05:06:50.039Z,96.6823
2023-04-26T05:07:50.900Z,96.5640
2023-04-26T05:08:51.628Z,96.4106
2023-04-26T05:09:52.325Z,96.4071
2023-04-26T05:10:52.958Z,96.4696
2023-04-26T05:11:53.620Z,96.4570
2023-04-26T05:12:54.340Z,96.3935
2023-04-26T05:13:55.592Z,96.5259
2023-04-26T05:14:56.699Z,96.6352
2023-04-26T05:15:57.503Z,96.4354
2023-04-26T05:16:58.205Z,96.2813
2023-04-26T05:17:58.966Z,96.1676
2023-04-26T05:18:59.670Z,96.1018
2023-04-26T05:20:00.494Z,96.0597
2023-04-26T05:21:01.201Z,95.9328
2023-04-26T05:22:01.907Z,95.8941
2023-04-26T05:23:02.626Z,95.7731
2023-04-26T05:24:03.363Z,95.8043
2023-04-26T05:25:04.064Z,95.8040
2023-04-26T05:26:04.747Z,95.7745
2023-04-26T05:27:05.443Z,95.7434
2023-04-26T05:28:06.144Z,95.7689
2023-04-26T05:29:06.811Z,95.6860
2023-04-26T05:30:07.454Z,95.7456
2023-04-26T05:31:10.632Z,95.6920
2023-04-26T05:32:09.354Z,95.7359
2023-04-26T05:33:10.073Z,95.6661
2023-04-26T05:34:10.743Z,95.5982
2023-04-26T05:35:11.397Z,95.6044
2023-04-26T05:36:12.083Z,95.5894
2023-04-26T05:37:12.742Z,95.6596
2023-04-26T05:38:13.485Z,95.6912
2023-04-26T05:39:14.157Z,95.7316
2023-04-26T05:40:14.837Z,95.7224
2023-04-26T05:41:15.570Z,95.6788
2023-04-26T05:42:17.855Z,95.7804
2023-04-26T05:43:19.136Z,95.7244
2023-04-26T05:44:19.928Z,95.4931
2023-04-26T05:45:20.626Z,95.5297
2023-04-26T05:46:21.607Z,95.2758
2023-04-26T05:47:22.613Z,95.2551
2023-04-26T05:48:23.331Z,95.1997
2023-04-26T05:49:24.017Z,95.0631
2023-04-26T05:50:24.749Z,95.1539
2023-04-26T05:51:25.456Z,95.1638
2023-04-26T05:52:26.179Z,95.2303
2023-04-26T05:53:26.923Z,94.8963
2023-04-26T05:54:27.628Z,94.8339
2023-04-26T05:55:28.367Z,95.1080
2023-04-26T05:56:29.121Z,94.9786
2023-04-26T05:57:29.943Z,94.9049
2023-04-26T05:58:30.662Z,94.6330
2023-04-26T05:59:31.376Z,94.3347
2023-04-26T06:00:32.108Z,94.5360
2023-04-26T06:01:32.873Z,94.6967
2023-04-26T06:02:33.876Z,94.5637
2023-04-26T06:03:35.151Z,94.5542
2023-04-26T06:04:36.191Z,94.4968
2023-04-26T06:05:36.944Z,94.3204
2023-04-26T06:06:37.785Z,94.5794
2023-04-26T06:07:38.499Z,94.8301
2023-04-26T06:08:39.229Z,94.9932
2023-04-26T06:09:39.935Z,95.0782
2023-04-26T06:10:40.673Z,95.0918
2023-04-26T06:11:41.321Z,94.8666
2023-04-26T06:12:42.056Z,94.5035
2023-04-26T06:13:43.126Z,94.4115
2023-04-26T06:14:43.946Z,94.3877
2023-04-26T06:15:44.605Z,94.1926
2023-04-26T06:16:45.428Z,94.0146
2023-04-26T06:17:46.132Z,93.7754
2023-04-26T06:18:46.902Z,93.9698
2023-04-26T06:19:47.698Z,94.1274
2023-04-26T06:20:48.440Z,94.2082
2023-04-26T06:21:49.169Z,93.8330
2023-04-26T06:22:49.939Z,93.4539
2023-04-26T06:23:50.942Z,93.3271
2023-04-26T06:24:52.004Z,93.0709
2023-04-26T06:25:52.669Z,93.1608
2023-04-26T06:26:53.414Z,93.6673
2023-04-26T06:27:54.163Z,93.6652
2023-04-26T06:28:54.890Z,94.0116
2023-04-26T06:29:55.605Z,94.0153
2023-04-26T06:30:56.450Z,93.9301
2023-04-26T06:31:57.173Z,93.7959
2023-04-26T06:32:58.032Z,93.4705
2023-04-26T06:33:58.779Z,93.0576
2023-04-26T06:34:59.509Z,92.6376
2023-04-26T06:36:00.223Z,92.6802
2023-04-26T06:37:00.994Z,92.8061
2023-04-26T06:38:01.689Z,93.0560
2023-04-26T06:39:02.419Z,92.7468
2023-04-26T06:40:03.124Z,92.9331
2023-04-26T06:41:03.863Z,93.0845
2023-04-26T06:42:04.633Z,92.7905
2023-04-26T06:43:05.370Z,92.4694
2023-04-26T06:44:06.126Z,93.0549
2023-04-26T06:45:06.881Z,93.1096
2023-04-26T06:46:07.602Z,92.7998
2023-04-26T06:47:08.311Z,92.5696
2023-04-26T06:48:09.098Z,92.5102
2023-04-26T06:49:09.870Z,92.3237
2023-04-26T06:50:10.614Z,92.1945
2023-04-26T06:51:11.390Z,92.3102
2023-04-26T06:52:12.215Z,92.3959
2023-04-26T06:53:12.922Z,92.7003
2023-04-26T06:54:13.708Z,92.9639
2023-04-26T06:55:14.442Z,92.3608
2023-04-26T06:56:15.133Z,91.9233
2023-04-26T06:57:15.874Z,91.5514
2023-04-26T06:58:16.824Z,91.5376
2023-04-26T06:59:17.572Z,91.4022
2023-04-26T07:00:18.317Z,91.2089
2023-04-26T07:01:19.069Z,91.2585
2023-04-26T07:02:20.068Z,91.6913
2023-04-26T07:03:21.033Z,91.9812
2023-04-26T07:04:22.047Z,91.3963
2023-04-26T07:05:22.911Z,91.2531
2023-04-26T07:06:23.677Z,91.0271
2023-04-26T07:07:24.355Z,90.9550
2023-04-26T07:08:25.100Z,90.6400
2023-04-26T07:09:25.804Z,90.1404
2023-04-26T07:10:26.535Z,89.8684
2023-04-26T07:11:27.270Z,89.6328
2023-04-26T07:12:27.960Z,89.4377
2023-04-26T07:13:28.658Z,89.5976
2023-04-26T07:14:29.343Z,89.2626
2023-04-26T07:15:30.041Z,89.1119
2023-04-26T07:16:30.803Z,88.9345
2023-04-26T07:17:31.600Z,89.3968
2023-04-26T07:18:32.323Z,89.7006
2023-04-26T07:19:33.093Z,89.3640
2023-04-26T07:20:33.871Z,89.2559
2023-04-26T07:21:34.570Z,89.9987
2023-04-26T07:22:35.296Z,90.1416
2023-04-26T07:23:36.090Z,90.4153
2023-04-26T07:24:36.774Z,90.7753
2023-04-26T07:25:37.488Z,90.7195
2023-04-26T07:26:38.208Z,89.8892
2023-04-26T07:27:38.967Z,90.2292
2023-04-26T07:28:39.688Z,89.4878
2023-04-26T07:29:40.435Z,89.7362
2023-04-26T07:30:41.145Z,90.0612
2023-04-26T07:31:41.817Z,90.1009
2023-04-26T07:32:42.659Z,89.5784
2023-04-26T07:33:43.505Z,88.4921
2023-04-26T07:34:44.251Z,88.7171
2023-04-26T07:35:44.988Z,88.1850
2023-04-26T07:36:45.705Z,87.3580
2023-04-26T07:37:46.412Z,87.5822
2023-04-26T07:38:47.179Z,87.6672
2023-04-26T07:39:47.837Z,88.0486
2023-04-26T07:40:48.567Z,88.3168
2023-04-26T07:41:49.238Z,88.3307
2023-04-26T07:42:49.975Z,88.1007
2023-04-26T07:43:50.882Z,88.2533
2023-04-26T07:44:51.973Z,87.3275
2023-04-26T07:45:52.727Z,86.6855
2023-04-26T07:46:53.416Z,86.0175
2023-04-26T07:47:54.781Z,86.5621
2023-04-26T07:48:55.884Z,86.9251
2023-04-26T07:49:56.603Z,86.7483
2023-04-26T07:50:57.327Z,86.4964
2023-04-26T07:51:58.023Z,87.2155
2023-04-26T07:52:58.769Z,86.4133
2023-04-26T07:53:59.440Z,87.3143
2023-04-26T07:55:00.161Z,88.0957
2023-04-26T07:56:00.882Z,87.6861
2023-04-26T07:57:01.636Z,86.9517
2023-04-26T07:58:02.314Z,86.5093
2023-04-26T07:59:03.053Z,87.0151
2023-04-26T08:00:03.744Z,87.3461
2023-04-26T08:01:04.443Z,86.5098
2023-04-26T08:02:05.199Z,86.2095
2023-04-26T08:03:06.108Z,85.7147
2023-04-26T08:04:07.435Z,85.1051
2023-04-26T08:05:08.445Z,84.5210
2023-04-26T08:06:09.233Z,84.7988
2023-04-26T08:07:09.968Z,85.7650
2023-04-26T08:08:10.616Z,86.1671
2023-04-26T08:09:12.499Z,86.3937
2023-04-26T08:10:13.331Z,86.2013
2023-04-26T08:11:14.082Z,86.2215
2023-04-26T08:12:14.830Z,86.0338
2023-04-26T08:13:15.509Z,86.4589
2023-04-26T08:14:16.399Z,86.4127
2023-04-26T08:15:17.103Z,86.5398
2023-04-26T08:16:17.830Z,86.7643
2023-04-26T08:17:18.568Z,86.2153
2023-04-26T08:18:19.292Z,84.9511
2023-04-26T08:19:20.069Z,84.2143
2023-04-26T08:20:20.769Z,84.1775
2023-04-26T08:21:21.510Z,84.5097
2023-04-26T08:22:22.254Z,84.7190
2023-04-26T08:23:22.983Z,84.2917
2023-04-26T08:24:23.884Z,83.6144
2023-04-26T08:25:24.768Z,84.4659
2023-04-26T08:26:25.494Z,84.6764
2023-04-26T08:27:26.236Z,84.7920
2023-04-26T08:28:26.925Z,85.4157
2023-04-26T08:29:27.684Z,85.4310
2023-04-26T08:30:28.411Z,85.3423
2023-04-26T08:31:29.256Z,85.3278
2023-04-26T08:32:30.066Z,85.3033
2023-04-26T08:33:30.762Z,85.1768
2023-04-26T08:34:31.505Z,84.9239
2023-04-26T08:35:32.271Z,84.5202
2023-04-26T08:36:32.962Z,85.2590
2023-04-26T08:37:33.660Z,84.9489
2023-04-26T08:38:34.426Z,85.5091
2023-04-26T08:39:35.160Z,84.9136
2023-04-26T08:40:35.885Z,83.8512
2023-04-26T08:41:36.595Z,83.8430
2023-04-26T08:42:38.002Z,83.6433
2023-04-26T08:43:38.976Z,84.1579
2023-04-26T08:44:39.674Z,84.4398
2023-04-26T08:45:40.495Z,83.8583
2023-04-26T08:46:41.226Z,84.2255
2023-04-26T08:47:42.022Z,84.1183
2023-04-26T08:48:42.727Z,83.6935
2023-04-26T08:49:43.443Z,83.5220
2023-04-26T08:50:44.109Z,83.4092
2023-04-26T08:51:44.855Z,83.4947
2023-04-26T08:52:45.632Z,83.7044
2023-04-26T08:53:46.298Z,83.8570
2023-04-26T08:54:47.036Z,83.4803
2023-04-26T08:55:47.724Z,83.0275
2023-04-26T08:56:48.415Z,83.2235
2023-04-26T08:57:49.105Z,83.2726
2023-04-26T08:58:49.790Z,82.9501
2023-04-26T08:59:50.524Z,83.4478
2023-04-26T09:00:51.383Z,83.4546
2023-04-26T09:01:52.119Z,83.1497
2023-04-26T09:02:53.197Z,83.3512
2023-04-26T09:03:54.585Z,83.0352
2023-04-26T09:04:55.973Z,83.4695
2023-04-26T09:05:56.930Z,83.1905
2023-04-26T09:06:57.652Z,83.4570
2023-04-26T09:07:58.344Z,83.3313
2023-04-26T09:08:59.036Z,83.4150
2023-04-26T09:09:59.840Z,82.8658
2023-04-26T09:11:00.531Z,82.4050
2023-04-26T09:12:01.230Z,81.7992
2023-04-26T09:13:01.957Z,81.1924
2023-04-26T09:14:02.662Z,81.5901
2023-04-26T09:15:03.372Z,81.5733
2023-04-26T09:16:05.267Z,81.6637
2023-04-26T09:17:06.323Z,81.0982
2023-04-26T09:18:07.043Z,80.1745
2023-04-26T09:19:07.769Z,79.6957
2023-04-26T09:20:08.608Z,79.4135
2023-04-26T09:21:09.305Z,79.3324
2023-04-26T09:22:10.026Z,78.4378
2023-04-26T09:23:10.736Z,78.0374
2023-04-26T09:24:11.404Z,78.1768
2023-04-26T09:25:12.103Z,78.5875
2023-04-26T09:26:12.791Z,78.0837
2023-04-26T09:27:13.509Z,78.5764
2023-04-26T09:28:14.182Z,78.4677
2023-04-26T09:29:14.970Z,78.6625
2023-04-26T09:30:15.665Z,79.3373
2023-04-26T09:31:16.399Z,80.4148
2023-04-26T09:32:17.079Z,80.8263
2023-04-26T09:33:17.897Z,79.3954
2023-04-26T09:34:18.568Z,78.4536
2023-04-26T09:35:19.278Z,77.4059
2023-04-26T09:36:19.946Z,76.8565
2023-04-26T09:37:20.627Z,75.6890
2023-04-26T09:38:21.364Z,75.1410
2023-04-26T09:39:22.031Z,75.8683
2023-04-26T09:40:22.788Z,76.8401
2023-04-26T09:41:23.518Z,77.2047
2023-04-26T09:42:24.192Z,77.4452
2023-04-26T09:43:24.826Z,77.4531
2023-04-26T09:44:25.469Z,76.4417
2023-04-26T09:45:26.119Z,74.8073
2023-04-26T09:46:26.843Z,74.7063
2023-04-26T09:47:27.474Z,75.8686
2023-04-26T09:48:28.113Z,75.2415
2023-04-26T09:49:28.766Z,75.7383
2023-04-26T09:50:29.459Z,75.4072
2023-04-26T09:51:30.145Z,75.6321
2023-04-26T09:52:30.792Z,75.9385
2023-04-26T09:53:31.434Z,76.2982
2023-04-26T09:54:32.046Z,76.1289
2023-04-26T09:55:35.468Z,75.4734
2023-04-26T09:56:33.819Z,75.5402
2023-04-26T09:57:34.472Z,75.4531
2023-04-26T09:58:35.093Z,75.6675
2023-04-26T09:59:35.725Z,76.1862
2023-04-26T10:00:36.386Z,76.4107
2023-04-26T10:01:37.088Z,76.2211
2023-04-26T10:02:37.808Z,76.5287
2023-04-26T10:03:38.798Z,76.4806
2023-04-26T10:04:39.788Z,75.6484
2023-04-26T10:05:40.455Z,75.4322
2023-04-26T10:06:41.147Z,75.8699
2023-04-26T10:07:41.875Z,75.3793
2023-04-26T10:08:42.570Z,74.2686
2023-04-26T10:09:43.208Z,74.0474
2023-04-26T10:10:43.929Z,73.8254
2023-04-26T10:11:44.576Z,73.5438
2023-04-26T10:12:45.264Z,75.3817
2023-04-26T10:13:45.991Z,76.4517
2023-04-26T10:14:46.694Z,74.9840
2023-04-26T10:15:47.406Z,74.6799
2023-04-26T10:16:48.112Z,74.2248
2023-04-26T10:17:50.239Z,74.2059
2023-04-26T10:18:50.185Z,74.2806
2023-04-26T10:19:50.939Z,74.0917
2023-04-26T10:20:51.609Z,74.7840
2023-04-26T10:21:52.289Z,74.6709
2023-04-26T10:22:52.963Z,73.8132
2023-04-26T10:23:53.700Z,72.9417
2023-04-26T10:24:54.391Z,73.1410
2023-04-26T10:25:55.082Z,73.0779
2023-04-26T10:26:55.810Z,72.6256
2023-04-26T10:27:56.525Z,71.8769
2023-04-26T10:29:02.098Z,70.5974
2023-04-26T10:29:58.330Z,70.8848
2023-04-26T10:30:58.996Z,71.5247
2023-04-26T10:31:59.653Z,72.1295
2023-04-26T10:33:00.331Z,70.8229
2023-04-26T10:34:00.948Z,69.1571
2023-04-26T10:35:01.621Z,68.9606
2023-04-26T10:36:02.260Z,68.3236
2023-04-26T10:37:02.995Z,68.0679
2023-04-26T10:38:03.638Z,67.1414
2023-04-26T10:39:04.261Z,67.4515
2023-04-26T10:40:04.863Z,66.8192
2023-04-26T10:41:05.545Z,66.7559
2023-04-26T10:42:06.171Z,66.5361
2023-04-26T10:43:06.806Z,64.5121
2023-04-26T10:44:07.421Z,63.6251
2023-04-26T10:45:08.054Z,63.4815
2023-04-26T10:46:08.695Z,63.8071
2023-04-26T10:47:09.284Z,63.6219
2023-04-26T10:48:09.964Z,64.8447
2023-04-26T10:49:10.589Z,65.9252
2023-04-26T10:50:11.215Z,66.0301
2023-04-26T10:51:11.958Z,64.9170
2023-04-26T10:52:12.554Z,63.1933
2023-04-26T10:53:13.198Z,63.4119
2023-04-26T10:54:13.836Z,63.2115
2023-04-26T10:55:14.469Z,63.1563
2023-04-26T10:56:15.083Z,63.6742
2023-04-26T10:57:15.716Z,63.5705
2023-04-26T10:58:16.323Z,64.0199
2023-04-26T10:59:36.125Z,63.3659
2023-04-26T11:00:18.001Z,63.0049
2023-04-26T11:01:18.751Z,61.9482
2023-04-26T11:02:19.408Z,59.5683
2023-04-26T11:03:20.104Z,60.2128
2023-04-26T11:04:20.897Z,60.1220
2023-04-26T11:05:23.557Z,59.0976
2023-04-26T11:06:22.670Z,59.2168
2023-04-26T11:07:23.291Z,58.7981
2023-04-26T11:08:23.934Z,56.6828
2023-04-26T11:09:24.552Z,55.5826
2023-04-26T11:10:25.219Z,55.1864
2023-04-26T11:11:25.905Z,56.2402
2023-04-26T11:12:26.586Z,60.0429
2023-04-26T11:13:27.211Z,62.1714
2023-04-26T11:14:27.872Z,61.0706
2023-04-26T11:15:28.506Z,60.0452
2023-04-26T11:16:29.302Z,60.3882
2023-04-26T11:17:30.002Z,60.7539
2023-04-26T11:18:30.629Z,59.9474
2023-04-26T11:19:31.256Z,57.2804
2023-04-26T11:20:31.830Z,55.6139
2023-04-26T11:21:32.444Z,54.9562
2023-04-26T11:22:33.023Z,55.1143
2023-04-26T11:23:33.849Z,53.4679
2023-04-26T11:24:34.448Z,52.7434
2023-04-26T11:25:35.041Z,52.5209
2023-04-26T11:26:35.652Z,52.4776
2023-04-26T11:27:36.163Z,53.9343
2023-04-26T11:28:36.737Z,53.5713
2023-04-26T11:29:37.331Z,54.2505
2023-04-26T11:30:38.506Z,54.4504
2023-04-26T11:31:39.460Z,53.7359
2023-04-26T11:32:40.120Z,53.3325
2023-04-26T11:33:40.699Z,53.3622
2023-04-26T11:34:41.297Z,53.8917
2023-04-26T11:35:41.869Z,52.6318
2023-04-26T11:36:42.473Z,51.9016
2023-04-26T11:37:43.051Z,52.0817
2023-04-26T11:38:43.694Z,50.8473
2023-04-26T11:39:44.318Z,51.4304
2023-04-26T11:40:44.867Z,50.5429
2023-04-26T11:41:45.436Z,49.2034
2023-04-26T11:42:46.029Z,49.9261
2023-04-26T11:43:46.634Z,51.4599
2023-04-26T11:44:47.879Z,51.3791
2023-04-26T11:45:48.608Z,52.4113
2023-04-26T11:46:49.291Z,52.3691
2023-04-26T11:47:49.899Z,54.1740
2023-04-26T11:48:50.425Z,54.9144
2023-04-26T11:49:51.070Z,54.1173
2023-04-26T11:50:51.614Z,53.4667
2023-04-26T11:51:52.218Z,53.2638
2023-04-26T11:52:52.773Z,52.3431
2023-04-26T11:53:53.318Z,52.1477
2023-04-26T11:54:53.869Z,52.0892
2023-04-26T11:55:54.459Z,51.4122
2023-04-26T11:56:55.050Z,50.7766
2023-04-26T11:57:55.865Z,51.0450
2023-04-26T11:58:56.834Z,51.3610
2023-04-26T11:59:57.639Z,51.2265
2023-04-26T12:00:58.213Z,51.6022
2023-04-26T12:01:58.936Z,50.8293
2023-04-26T12:02:59.715Z,49.8547
2023-04-26T12:04:00.792Z,49.3932
2023-04-26T12:05:01.822Z,49.0140
2023-04-26T12:06:02.545Z,49.5788
2023-04-26T12:07:03.113Z,49.9973
2023-04-26T12:08:03.681Z,50.7953
2023-04-26T12:09:04.258Z,53.2828
2023-04-26T12:10:04.880Z,53.2747
2023-04-26T12:11:05.497Z,52.4832
2023-04-26T12:12:06.092Z,51.4142
2023-04-26T12:13:06.695Z,50.3762
2023-04-26T12:14:07.377Z,50.4786